Time;durP1;ratioP1;P1;durP2;ratioP2;P2;SDS_P1;SDS_P2;PMS_P1;PMS_P2;Temp;Humidity;BMP_temperature;BMP_pressure;BME280_temperature;BME280_humidity;BME280_pressure;Samples;Min_cycle;Max_cycle;Signal;HPM_P1;HPM_P2
2021/10/14 06:39:16;;;;;;;10.50;6.78;;;;;;;3.73;100.00;100074.13;5090573;27;20389;-81
2021/10/14 06:41:43;;;;;;;12.48;8.10;;;;;;;3.92;100.00;100076.25;5089483;28;20094;-81
2021/10/14 06:44:10;;;;;;;16.50;8.63;;;;;;;4.08;100.00;100078.59;5087651;28;20489;-81
2021/10/14 06:46:37;;;;;;;16.65;8.45;;;;;;;4.27;100.00;100071.75;5089286;28;20063;-82
2021/10/14 06:49:04;;;;;;;13.73;8.13;;;;;;;4.35;100.00;100074.69;5089254;28;20077;-81
2021/10/14 06:51:31;;;;;;;13.38;8.10;;;;;;;4.49;100.00;100081.69;5089554;28;20059;-82
2021/10/14 06:53:58;;;;;;;11.77;7.28;;;;;;;4.61;100.00;100086.91;5088747;28;20555;-82
2021/10/14 06:56:26;;;;;;;15.35;8.20;;;;;;;4.68;100.00;100087.28;5073409;28;20426;-82
2021/10/14 06:58:53;;;;;;;16.80;6.70;;;;;;;4.69;100.00;100080.91;5072342;28;20040;-82
2021/10/14 07:01:19;;;;;;;11.68;7.93;;;;;;;4.87;100.00;100091.16;5089013;28;20048;-82
2021/10/14 07:03:46;;;;;;;12.52;6.88;;;;;;;4.96;100.00;100098.50;5089436;28;20267;-82
2021/10/14 07:06:13;;;;;;;13.05;7.25;;;;;;;5.12;100.00;100101.63;5089267;28;20044;-82
2021/10/14 07:08:39;;;;;;;13.40;7.82;;;;;;;5.12;100.00;100098.94;5089265;28;20487;-82
2021/10/14 07:11:06;;;;;;;10.68;6.50;;;;;;;5.26;100.00;100100.47;5088806;28;20052;-82
2021/10/14 07:13:34;;;;;;;10.68;7.03;;;;;;;5.41;100.00;100097.50;5088645;28;20048;-82
2021/10/14 07:16:01;;;;;;;20.40;8.93;;;;;;;5.55;100.00;100099.03;5088681;28;20086;-82
2021/10/14 07:18:28;;;;;;;15.07;6.35;;;;;;;5.66;100.00;100090.88;5088942;28;20094;-82
2021/10/14 07:20:54;;;;;;;12.88;7.82;;;;;;;5.79;100.00;100086.13;5088735;28;20040;-82
2021/10/14 07:23:21;;;;;;;12.00;7.20;;;;;;;5.92;100.00;100098.59;5088994;28;20335;-82
2021/10/14 07:25:48;;;;;;;14.52;7.07;;;;;;;5.96;100.00;100100.03;5088178;28;20048;-82
2021/10/14 07:28:15;;;;;;;8.35;6.20;;;;;;;6.10;100.00;100105.13;5081192;28;20106;-82
2021/10/14 07:30:43;;;;;;;13.30;5.50;;;;;;;6.10;100.00;100093.50;5068770;28;20129;-82
2021/10/14 07:33:09;;;;;;;10.73;6.30;;;;;;;6.26;100.00;100093.81;5088283;28;20097;-82
2021/10/14 07:35:38;;;;;;;8.35;6.55;;;;;;;6.26;100.00;100095.69;5088436;28;20537;-82
2021/10/14 07:38:09;;;;;;;11.30;6.75;;;;;;;6.38;100.00;100098.19;5074679;28;20462;-82
2021/10/14 07:40:38;;;;;;;9.18;5.70;;;;;;;6.39;100.00;100085.53;5068384;28;20140;-82
2021/10/14 07:43:06;;;;;;;10.98;5.93;;;;;;;6.41;100.00;100085.38;5068514;28;20614;-82
2021/10/14 07:45:35;;;;;;;10.55;5.53;;;;;;;6.57;100.00;100082.19;5067752;28;20099;-82
2021/10/14 07:48:04;;;;;;;10.15;6.10;;;;;;;6.73;100.00;100094.19;5069444;28;20476;-82
2021/10/14 07:50:31;;;;;;;13.73;5.68;;;;;;;6.85;100.00;100100.34;5075696;28;20076;-81
2021/10/14 07:52:58;;;;;;;12.05;5.25;;;;;;;6.83;100.00;100102.31;5074507;28;20096;-82
2021/10/14 07:55:25;;;;;;;10.57;5.78;;;;;;;6.93;100.00;100104.22;5059570;28;20530;-82
2021/10/14 07:57:51;;;;;;;9.20;6.25;;;;;;;7.01;100.00;100115.16;5054847;28;20492;-82
2021/10/14 08:00:18;;;;;;;7.38;4.85;;;;;;;7.04;100.00;100118.44;5066319;28;20101;-82
2021/10/14 08:02:45;;;;;;;7.22;4.95;;;;;;;7.11;100.00;100116.06;5072796;28;20084;-82
2021/10/14 08:05:17;;;;;;;11.68;4.63;;;;;;;7.09;100.00;100105.38;5067759;28;20048;-81
2021/10/14 08:07:45;;;;;;;12.68;5.75;;;;;;;7.09;100.00;100113.50;5054839;28;20052;-82
2021/10/14 08:10:11;;;;;;;6.75;4.72;;;;;;;7.04;100.00;100104.06;5054711;28;20071;-82
2021/10/14 08:12:38;;;;;;;8.20;4.90;;;;;;;7.14;100.00;100107.66;5073507;28;20129;-82
2021/10/14 08:15:06;;;;;;;9.15;4.97;;;;;;;7.20;100.00;100112.50;5074334;28;20384;-81
2021/10/14 08:17:32;;;;;;;9.82;5.30;;;;;;;7.45;100.00;100118.34;5073684;28;20110;-81
2021/10/14 08:19:59;;;;;;;11.50;6.30;;;;;;;7.52;100.00;100100.56;5065673;28;20052;-81
2021/10/14 08:22:27;;;;;;;9.57;4.90;;;;;;;7.61;100.00;100102.41;5054641;28;20056;-81
2021/10/14 08:24:57;;;;;;;9.23;4.47;;;;;;;7.52;100.00;100097.03;5054128;28;20045;-81
2021/10/14 08:27:26;;;;;;;15.93;4.28;;;;;;;7.54;100.00;100100.41;5054644;28;20049;-81
2021/10/14 08:29:53;;;;;;;8.05;5.18;;;;;;;7.65;100.00;100099.41;5054337;28;20076;-82
2021/10/14 08:32:20;;;;;;;11.95;5.05;;;;;;;7.83;100.00;100102.25;5058173;28;20098;-81
2021/10/14 08:34:46;;;;;;;8.00;4.20;;;;;;;7.85;100.00;100100.28;5054601;28;20076;-82
2021/10/14 08:37:13;;;;;;;5.82;3.95;;;;;;;7.76;100.00;100113.66;5053078;28;20533;-82
2021/10/14 08:39:41;;;;;;;7.47;4.60;;;;;;;7.85;100.00;100103.81;5057789;28;20041;-81
2021/10/14 08:42:08;;;;;;;5.32;4.55;;;;;;;8.00;100.00;100096.13;5054187;28;20079;-82
2021/10/14 08:44:35;;;;;;;7.47;4.30;;;;;;;7.98;100.00;100108.97;5053750;28;20053;-82
2021/10/14 08:47:02;;;;;;;26.98;5.30;;;;;;;7.97;100.00;100099.13;5053947;28;20487;-82
2021/10/14 08:49:29;;;;;;;33.53;6.32;;;;;;;8.01;100.00;100103.25;5054013;28;20056;-82
2021/10/14 08:52:15;;;;;;;14.75;4.68;;;;;;;8.25;100.00;100100.06;5064798;28;20048;-82
2021/10/14 08:54:43;;;;;;;10.15;4.70;;;;;;;8.39;100.00;100104.13;5063514;28;20053;-82
2021/10/14 08:57:10;;;;;;;6.45;4.47;;;;;;;8.46;100.00;100102.59;5053893;28;20102;-82
2021/10/14 08:59:38;;;;;;;7.43;4.35;;;;;;;8.58;100.00;100107.81;5053764;28;20041;-82
2021/10/14 09:02:15;;;;;;;8.75;4.55;;;;;;;8.38;100.00;100104.28;5072332;28;20534;-81
2021/10/14 09:04:41;;;;;;;29.48;6.22;;;;;;;8.53;100.00;100099.28;5073373;28;20056;-82
2021/10/14 09:07:09;;;;;;;7.85;4.43;;;;;;;8.52;100.00;100089.44;5055986;28;20122;-81
2021/10/14 09:09:37;;;;;;;8.35;4.65;;;;;;;8.69;100.00;100083.22;5052434;28;20049;-82
2021/10/14 09:12:06;;;;;;;5.65;4.10;;;;;;;8.89;100.00;100086.69;5053483;28;20480;-82
2021/10/14 09:14:33;;;;;;;7.43;4.03;;;;;;;9.03;100.00;100091.59;5053217;28;20118;-82
2021/10/14 09:17:00;;;;;;;7.88;3.80;;;;;;;8.92;98.49;100091.78;5055083;28;20083;-82
2021/10/14 09:19:30;;;;;;;6.80;4.35;;;;;;;8.81;98.87;100078.47;5053229;28;20496;-82
2021/10/14 09:21:58;;;;;;;;;;;;;;;8.85;99.10;100080.72;5053960;28;20040;-82
2021/10/14 09:24:32;;;;;;;6.35;3.83;;;;;;;8.92;97.17;100082.81;5052950;28;20334;-82
2021/10/14 09:27:00;;;;;;;6.70;3.83;;;;;;;9.03;97.59;100064.47;5053384;28;20061;-82
2021/10/14 09:29:29;;;;;;;9.52;4.22;;;;;;;9.13;96.78;100071.69;5053269;28;20056;-82
2021/10/14 09:32:00;;;;;;;4.57;3.30;;;;;;;9.14;93.01;100057.13;5053061;28;20397;-82
2021/10/14 09:34:37;;;;;;;7.03;3.65;;;;;;;9.29;94.75;100065.56;5053230;28;20389;-82
2021/10/14 09:37:25;;;;;;;7.80;4.00;;;;;;;9.59;95.29;100071.59;5052569;28;20060;-82
2021/10/14 09:39:57;;;;;;;9.07;4.05;;;;;;;9.72;92.58;100069.34;5052695;28;20045;-82
2021/10/14 09:42:45;;;;;;;8.20;4.13;;;;;;;9.76;93.23;100070.75;5052950;28;20048;-83
2021/10/14 09:45:21;;;;;;;6.47;4.13;;;;;;;9.69;91.56;100062.34;5052829;28;20053;-82
2021/10/14 09:47:49;;;;;;;9.02;4.55;;;;;;;9.99;92.47;100062.94;5053102;28;20098;-82
2021/10/14 09:50:17;;;;;;;5.63;4.00;;;;;;;10.06;88.31;100055.84;5052362;28;20257;-82
2021/10/14 09:52:44;;;;;;;7.97;4.10;;;;;;;9.87;86.78;100043.31;5070123;28;20491;-82
2021/10/14 09:55:13;;;;;;;8.43;4.43;;;;;;;9.98;90.03;100063.97;5072207;28;20454;-82
2021/10/14 09:57:40;;;;;;;8.25;4.20;;;;;;;9.96;92.18;100038.81;5054660;28;20055;-82
2021/10/14 10:00:10;;;;;;;5.22;3.33;;;;;;;10.14;90.31;100052.34;5052477;28;20569;-82
2021/10/14 10:02:40;;;;;;;7.43;3.85;;;;;;;10.17;89.84;100053.88;5052671;28;20060;-83
2021/10/14 10:05:07;;;;;;;6.55;3.47;;;;;;;10.27;91.58;100039.16;5051949;28;20611;-83
2021/10/14 10:07:38;;;;;;;9.20;3.88;;;;;;;10.46;87.55;100042.69;5052208;28;20053;-82
2021/10/14 10:10:07;;;;;;;7.18;4.03;;;;;;;10.39;86.91;100039.78;5052463;28;20127;-82
2021/10/14 10:12:35;;;;;;;4.47;3.45;;;;;;;10.58;92.05;100046.84;5052628;28;20106;-83
2021/10/14 10:15:02;;;;;;;13.77;4.68;;;;;;;10.44;89.04;100034.69;5072136;28;20062;-82
2021/10/14 10:17:37;;;;;;;6.75;3.75;;;;;;;10.45;88.18;100039.13;5072415;28;20048;-82
2021/10/14 10:20:06;;;;;;;9.63;3.70;;;;;;;10.36;85.41;100031.94;5056389;28;20061;-82
2021/10/14 10:22:54;;;;;;;10.95;3.95;;;;;;;10.51;84.32;100055.78;5051988;28;20503;-82
2021/10/14 10:25:37;;;;;;;5.25;3.33;;;;;;;10.71;85.44;100051.81;5063551;28;20121;-82
2021/10/14 10:28:06;;;;;;;8.45;3.50;;;;;;;11.07;86.68;100046.13;5072288;28;20094;-82
2021/10/14 10:30:36;;;;;;;8.93;3.58;;;;;;;11.23;83.61;100063.50;5067017;28;20053;-82
2021/10/14 10:33:04;;;;;;;8.75;4.03;;;;;;;11.42;84.83;100065.91;5072010;28;20044;-82
2021/10/14 10:35:44;;;;;;;8.48;3.08;;;;;;;11.23;84.66;100050.78;5061035;28;20048;-82
2021/10/14 10:38:17;;;;;;;7.20;3.90;;;;;;;11.13;86.78;100053.63;5062375;28;20044;-82
2021/10/14 10:40:45;;;;;;;7.32;3.22;;;;;;;11.22;82.70;100043.63;5067828;28;20072;-82
2021/10/14 10:43:15;;;;;;;10.77;5.32;;;;;;;11.16;81.20;100038.84;5052210;28;20122;-82
2021/10/14 10:45:52;;;;;;;4.15;3.25;;;;;;;11.39;85.65;100046.34;5051811;28;20142;-83
2021/10/14 10:48:23;;;;;;;8.20;3.33;;;;;;;11.27;82.14;100033.06;5070576;28;20143;-82
2021/10/14 10:50:54;;;;;;;5.88;3.60;;;;;;;11.29;79.43;100028.31;5071918;28;20057;-82
2021/10/14 10:53:22;;;;;;;6.65;3.30;;;;;;;11.60;78.71;100041.25;5063169;28;20389;-82
2021/10/14 10:55:52;;;;;;;6.28;3.58;;;;;;;11.51;81.04;100034.09;5051824;28;20052;-82
2021/10/14 10:58:45;;;;;;;7.72;2.67;;;;;;;11.55;76.73;100040.91;5052008;28;20488;-83
2021/10/14 11:01:14;;;;;;;9.10;3.33;;;;;;;11.48;77.91;100032.56;5059537;28;20479;-83
2021/10/14 11:03:51;;;;;;;10.90;3.17;;;;;;;11.61;79.30;100033.94;5059522;28;20048;-83
2021/10/14 11:06:20;;;;;;;5.10;2.78;;;;;;;11.83;80.15;100016.91;5071774;28;20132;-82
2021/10/14 11:08:47;;;;;;;6.32;3.22;;;;;;;11.60;77.93;100022.19;5062227;28;20470;-82
2021/10/14 11:11:17;;;;;;;7.75;2.97;;;;;;;11.74;79.33;100020.63;5058858;28;20054;-82
2021/10/14 11:13:48;;;;;;;3.22;2.10;;;;;;;11.79;77.68;100011.97;5065551;28;20048;-80
2021/10/14 11:16:18;;;;;;;6.55;2.55;;;;;;;11.87;74.88;100007.34;5054432;28;20473;-83
2021/10/14 11:18:48;;;;;;;6.88;2.45;;;;;;;11.87;75.54;99993.72;5066515;28;20126;-82
2021/10/14 11:21:20;;;;;;;4.47;2.47;;;;;;;12.06;77.17;99997.16;5059910;28;20059;-83
2021/10/14 11:23:53;;;;;;;4.15;2.45;;;;;;;12.23;76.04;100000.66;5061149;28;20497;-82
2021/10/14 11:26:31;;;;;;;3.92;1.88;;;;;;;12.23;75.39;99999.81;5057586;28;20060;-82
2021/10/14 11:29:02;;;;;;;4.97;2.33;;;;;;;12.21;75.52;99987.22;5056349;28;20506;-82
2021/10/14 11:31:36;;;;;;;6.00;2.22;;;;;;;12.40;74.88;99996.00;5066212;28;20082;-83
2021/10/14 11:34:08;;;;;;;6.55;2.60;;;;;;;12.40;77.00;99990.53;5058019;28;20449;-82
2021/10/14 11:36:36;;;;;;;6.88;2.67;;;;;;;12.30;74.97;99974.41;5070278;28;20063;-83
2021/10/14 11:39:09;;;;;;;5.25;2.10;;;;;;;12.54;75.61;99988.94;5055165;28;20475;-83
2021/10/14 11:41:37;;;;;;;4.88;2.15;;;;;;;12.36;74.07;99987.34;5065312;28;20093;-83
2021/10/14 11:44:09;;;;;;;5.72;2.65;;;;;;;12.49;76.71;99989.47;5071951;28;20052;-83
2021/10/14 11:46:41;;;;;;;6.18;2.83;;;;;;;12.42;73.77;99972.16;5057186;28;20520;-83
2021/10/14 11:49:11;;;;;;;6.38;2.30;;;;;;;12.54;75.77;99964.41;5055256;28;20131;-81
2021/10/14 11:51:49;;;;;;;6.90;2.45;;;;;;;12.62;75.45;99960.81;5056963;28;20110;-83
2021/10/14 11:54:19;;;;;;;4.22;2.58;;;;;;;12.80;77.87;99968.72;5061438;28;20049;-81
2021/10/14 11:56:48;;;;;;;6.47;2.45;;;;;;;12.60;74.51;99946.47;5071271;28;20474;-81
2021/10/14 11:59:16;;;;;;;4.63;2.20;;;;;;;12.72;73.51;99955.94;5054570;28;20045;-81
2021/10/14 12:01:59;;;;;;;5.97;2.13;;;;;;;12.85;73.21;99952.63;5054654;28;20072;-81
2021/10/14 12:04:30;;;;;;;3.08;1.60;;;;;;;12.90;73.30;99961.13;5054633;28;20053;-81
2021/10/14 12:06:58;;;;;;;4.05;2.10;;;;;;;12.74;74.03;99954.75;5054964;28;20056;-81
2021/10/14 12:09:26;;;;;;;3.53;1.92;;;;;;;12.84;73.25;99940.03;5054626;28;20053;-80
2021/10/14 12:11:57;;;;;;;5.13;1.80;;;;;;;12.93;75.18;99947.13;5054505;28;20098;-81
2021/10/14 12:14:25;;;;;;;2.58;2.00;;;;;;;12.74;75.58;99949.28;5068887;28;20056;-81
2021/10/14 12:17:06;;;;;;;3.15;2.17;;;;;;;12.71;75.45;99944.19;5074363;28;20488;-81
2021/10/14 12:19:44;;;;;;;5.13;1.95;;;;;;;12.94;75.53;99935.19;5067332;28;20041;-81
2021/10/14 12:22:14;;;;;;;6.40;1.60;;;;;;;13.04;76.44;99935.78;5074377;28;20076;-81
2021/10/14 12:24:55;;;;;;;;;;;;;;;12.89;72.34;99946.63;5064819;28;20056;-81
2021/10/14 12:27:22;;;;;;;9.48;1.88;;;;;;;12.80;72.48;99946.88;5054150;28;19920;-81
2021/10/14 12:29:50;;;;;;;5.60;1.65;;;;;;;12.82;74.36;99925.72;5062537;28;20097;-81
2021/10/14 12:32:19;;;;;;;5.80;1.75;;;;;;;12.87;73.16;99936.94;5074269;28;20055;-81
2021/10/14 12:34:53;;;;;;;4.38;1.73;;;;;;;12.84;74.43;99919.06;5072304;28;20553;-81
2021/10/14 12:37:25;;;;;;;3.30;1.75;;;;;;;12.91;73.76;99927.34;5053657;28;20123;-81
2021/10/14 12:40:24;;;;;;;4.82;1.98;;;;;;;12.94;73.79;99927.00;5059483;28;20388;-81
2021/10/14 12:42:57;;;;;;;5.10;1.77;;;;;;;13.11;76.38;99927.72;5073878;28;20436;-82
2021/10/14 12:45:39;;;;;;;2.17;1.35;;;;;;;13.01;73.90;99925.25;5073895;28;20396;-81
2021/10/14 12:48:22;;;;;;;5.80;2.13;;;;;;;13.15;75.10;99923.59;5072186;28;20079;-81
2021/10/14 12:51:07;;;;;;;8.82;2.10;;;;;;;13.19;74.02;99915.91;5073609;28;20044;-81
2021/10/14 12:53:39;;;;;;;3.00;1.52;;;;;;;13.24;74.11;99917.03;5073728;28;20472;-82
2021/10/14 12:56:09;;;;;;;3.40;1.35;;;;;;;13.54;76.00;99913.56;5073357;28;20484;-82
2021/10/14 12:58:36;;;;;;;3.78;1.20;;;;;;;13.26;71.62;99908.66;5055546;28;20056;-81
2021/10/14 13:01:05;;;;;;;3.95;1.40;;;;;;;13.19;72.69;99905.81;5053726;28;20135;-82
2021/10/14 13:03:33;;;;;;;2.20;1.23;;;;;;;13.40;72.23;99907.03;5053886;28;20052;-81
2021/10/14 13:06:00;;;;;;;7.55;1.88;;;;;;;13.39;72.11;99902.59;5053420;28;20053;-81
2021/10/14 13:08:28;;;;;;;4.47;1.67;;;;;;;13.53;73.44;99901.75;5059032;28;20280;-81
2021/10/14 13:10:55;;;;;;;2.80;1.33;;;;;;;13.45;71.88;99893.66;5053256;28;20400;-82
2021/10/14 13:13:24;;;;;;;7.85;1.45;;;;;;;13.35;71.42;99893.91;5053577;28;20110;-82
2021/10/14 13:15:51;;;;;;;4.05;1.63;;;;;;;13.29;71.23;99902.81;5053177;28;20064;-82
2021/10/14 13:18:17;;;;;;;5.68;1.33;;;;;;;13.21;71.69;99900.16;5053537;28;20045;-81
2021/10/14 13:20:44;;;;;;;2.45;1.50;;;;;;;13.20;72.89;99888.41;5053171;28;20049;-82
2021/10/14 13:23:11;;;;;;;1.45;1.30;;;;;;;13.15;72.73;99879.06;5053685;28;20137;-82
2021/10/14 13:25:39;;;;;;;5.70;1.35;;;;;;;13.17;71.74;99890.63;5058145;28;20110;-82
2021/10/14 13:28:07;;;;;;;10.05;1.60;;;;;;;13.15;72.45;99873.59;5053199;28;20131;-82
2021/10/14 13:30:35;;;;;;;3.92;1.48;;;;;;;13.44;73.72;99884.63;5053238;28;20085;-82
2021/10/14 13:33:01;;;;;;;2.17;1.15;;;;;;;13.37;73.45;99880.06;5071047;28;20052;-82
2021/10/14 13:35:28;;;;;;;4.85;1.90;;;;;;;13.33;73.11;99873.28;5072768;28;20052;-82
2021/10/14 13:37:55;;;;;;;3.45;1.70;;;;;;;13.35;73.15;99883.00;5062013;28;20044;-82
2021/10/14 13:40:23;;;;;;;6.72;1.70;;;;;;;13.45;71.93;99861.72;5062002;28;20076;-82
2021/10/14 13:42:54;;;;;;;3.30;1.55;;;;;;;13.54;75.35;99876.16;5054227;28;20124;-82
2021/10/14 13:45:21;;;;;;;8.15;2.65;;;;;;;13.41;72.90;99863.16;5052481;28;20139;-82
2021/10/14 13:47:49;;;;;;;3.63;1.80;;;;;;;13.47;72.93;99860.69;5052314;28;20106;-81
2021/10/14 13:50:16;;;;;;;5.38;1.77;;;;;;;13.67;72.04;99870.06;5052551;28;20076;-82
2021/10/14 13:52:43;;;;;;;9.13;1.88;;;;;;;13.48;71.83;99856.94;5052571;28;20041;-82
2021/10/14 13:55:10;;;;;;;3.53;1.38;;;;;;;13.52;71.13;99855.50;5052228;28;20393;-82
2021/10/14 13:57:37;;;;;;;2.78;1.33;;;;;;;13.48;70.53;99851.47;5052109;28;20052;-82
2021/10/14 14:00:07;;;;;;;9.65;1.42;;;;;;;13.67;71.17;99850.94;5052718;28;20057;-82
2021/10/14 14:02:36;;;;;;;3.15;1.30;;;;;;;13.86;71.26;99848.66;5052581;28;20410;-82
2021/10/14 14:05:05;;;;;;;3.30;1.13;;;;;;;14.07;69.34;99842.41;5052353;28;20041;-82
2021/10/14 14:07:32;;;;;;;3.63;1.20;;;;;;;14.36;69.71;99829.69;5052598;28;20053;-82
2021/10/14 14:09:59;;;;;;;4.05;1.40;;;;;;;14.45;69.43;99825.78;5052535;28;20125;-81
2021/10/14 14:12:26;;;;;;;4.13;1.52;;;;;;;14.57;69.96;99815.19;5052323;28;20053;-82
2021/10/14 14:14:53;;;;;;;2.45;1.48;;;;;;;14.51;67.34;99811.34;5051655;28;20403;-82
2021/10/14 14:17:20;;;;;;;3.08;1.23;;;;;;;14.76;67.63;99821.94;5052436;28;20492;-82
2021/10/14 14:19:47;;;;;;;3.05;1.40;;;;;;;14.79;67.59;99822.38;5052106;28;20048;-82
2021/10/14 14:22:15;;;;;;;3.00;1.30;;;;;;;14.94;65.56;99805.88;5064489;28;20458;-82
2021/10/14 14:24:44;;;;;;;7.05;1.50;;;;;;;14.74;65.30;99799.38;5071834;28;20487;-82
2021/10/14 14:27:11;;;;;;;4.75;1.50;;;;;;;14.64;65.89;99799.72;5059921;28;20136;-82
2021/10/14 14:29:46;;;;;;;3.30;1.40;;;;;;;14.68;64.51;99795.56;5052026;28;20454;-82
2021/10/14 14:32:15;;;;;;;3.40;1.42;;;;;;;14.44;63.56;99797.59;5051847;28;20067;-82
2021/10/14 14:34:44;;;;;;;2.47;1.00;;;;;;;14.58;65.15;99798.56;5065997;28;20056;-82
2021/10/14 14:37:11;;;;;;;5.13;1.38;;;;;;;14.46;64.44;99790.03;5067114;28;20460;-82
2021/10/14 14:39:44;;;;;;;3.40;1.30;;;;;;;14.23;64.68;99787.50;5055277;28;20051;-82
2021/10/14 14:42:11;;;;;;;5.40;1.20;;;;;;;14.20;65.75;99803.44;5067410;28;20052;-82
2021/10/14 14:44:38;;;;;;;5.38;1.35;;;;;;;14.22;65.65;99804.94;5050126;28;20501;-82
2021/10/14 14:47:06;;;;;;;4.28;1.40;;;;;;;14.31;66.86;99802.94;5053067;28;20056;-82
2021/10/14 14:49:33;;;;;;;2.72;1.50;;;;;;;14.25;67.02;99787.28;5053686;28;20056;-82
2021/10/14 14:52:00;;;;;;;3.65;1.50;;;;;;;14.19;66.06;99788.91;5051888;28;20075;-82
2021/10/14 14:54:32;;;;;;;6.10;1.20;;;;;;;14.15;67.40;99790.31;5051584;28;20475;-82
2021/10/14 14:57:01;;;;;;;6.20;1.58;;;;;;;14.25;66.55;99799.06;5051895;28;20068;-81
2021/10/14 14:59:31;;;;;;;2.55;0.98;;;;;;;14.11;66.00;99789.88;5066347;28;20056;-82
2021/10/14 15:01:57;;;;;;;;;;;;;;;14.20;68.19;99801.56;5076563;28;20107;-82
2021/10/14 15:04:24;;;;;;;4.55;1.33;;;;;;;14.05;68.81;99796.13;5063857;28;19921;-82
2021/10/14 15:06:51;;;;;;;2.33;1.20;;;;;;;13.88;68.01;99791.91;5055260;28;20057;-82
2021/10/14 15:09:18;;;;;;;5.20;1.42;;;;;;;13.78;68.24;99782.13;5055861;28;20060;-82
2021/10/14 15:11:45;;;;;;;3.92;1.40;;;;;;;13.92;66.10;99774.09;5055428;28;20407;-82
2021/10/14 15:14:14;;;;;;;4.65;1.65;;;;;;;13.95;65.29;99795.56;5055630;28;20608;-84
2021/10/14 15:17:16;;;;;;;5.10;1.50;;;;;;;13.76;67.03;99775.13;5055437;28;20080;-84
2021/10/14 15:19:46;;;;;;;5.57;1.27;;;;;;;13.88;68.18;99783.69;5026909;28;20056;-84
2021/10/14 15:22:13;;;;;;;5.18;1.40;;;;;;;13.75;69.86;99777.03;5065176;28;20044;-84
2021/10/14 15:25:10;;;;;;;3.08;1.20;;;;;;;13.66;70.51;99780.06;5072718;28;20049;-85
2021/10/14 15:27:37;;;;;;;5.88;1.65;;;;;;;13.47;70.72;99773.28;5012772;28;20441;-85
2021/10/14 15:30:07;;;;;;;8.93;1.77;;;;;;;13.39;70.76;99783.28;5045521;28;20052;-84
2021/10/14 15:32:34;;;;;;;;;;;;;;;13.38;71.21;99789.78;5056297;28;20128;-84
2021/10/14 15:35:01;;;;;;;5.57;2.42;;;;;;;13.12;72.24;99760.16;5069342;28;19927;-85
2021/10/14 15:37:39;;;;;;;6.35;1.20;;;;;;;13.23;71.28;99758.84;5069220;28;20495;-84
2021/10/14 15:40:28;;;;;;;2.42;1.40;;;;;;;13.03;71.33;99770.31;5062600;28;20452;-84
2021/10/14 15:42:55;;;;;;;7.07;2.60;;;;;;;12.88;71.35;99772.19;5071300;28;20544;-84
2021/10/14 15:45:23;;;;;;;4.47;1.95;;;;;;;12.79;74.40;99776.84;5054846;28;20535;-84
2021/10/14 15:47:50;;;;;;;4.38;1.58;;;;;;;12.74;74.92;99766.50;5055094;28;20049;-84
2021/10/14 15:50:28;;;;;;;3.20;1.42;;;;;;;12.71;75.01;99769.59;5073976;28;20044;-83
2021/10/14 15:52:58;;;;;;;4.85;1.73;;;;;;;12.67;75.48;99768.25;5075059;28;20470;-84
2021/10/14 15:55:24;;;;;;;5.85;1.52;;;;;;;12.67;76.69;99770.16;5057393;28;20489;-84
2021/10/14 15:57:51;;;;;;;3.85;1.27;;;;;;;12.56;76.63;99769.53;5057296;28;20117;-84
2021/10/14 16:00:18;;;;;;;3.17;1.63;;;;;;;12.35;78.04;99770.22;5058916;28;20049;-84
2021/10/14 16:02:47;;;;;;;4.00;1.20;;;;;;;12.17;79.16;99759.63;5054822;28;20049;-84
2021/10/14 16:05:13;;;;;;;4.25;1.27;;;;;;;12.10;80.09;99769.53;5064454;28;20044;-84
2021/10/14 16:07:40;;;;;;;4.45;1.27;;;;;;;12.02;80.27;99761.44;5074903;28;20057;-84
2021/10/14 16:13:25;;;;;;;2.25;1.23;;;;;;;11.89;82.14;99770.13;5050830;28;20083;-83
2021/10/14 19:13:54;;;;;;;4.32;2.85;;;;;;;6.27;100.00;99719.38;4931237;29;20478;-80
